Time;durP1;ratioP1;P1;durP2;ratioP2;P2;SDS_P1;SDS_P2;PMS_P1;PMS_P2;Temp;Humidity;BMP_temperature;BMP_pressure;BME280_temperature;BME280_humidity;BME280_pressure;Samples;Min_cycle;Max_cycle;Signal;HPM_P1;HPM_P2
2022/10/17 00:01:15;;;;;;;16.40;11.02;;;;;;;13.90;100.00;98140.84;4958350;28;20034;-88
2022/10/17 00:03:40;;;;;;;16.85;10.57;;;;;;;13.89;100.00;98131.31;4958586;28;20035;-88
2022/10/17 00:06:12;;;;;;;13.73;10.45;;;;;;;14.02;100.00;98140.78;4975382;28;20030;-89
2022/10/17 00:08:39;;;;;;;17.70;11.57;;;;;;;13.97;100.00;98133.59;4975491;28;20031;-88
2022/10/17 00:11:07;;;;;;;16.90;11.30;;;;;;;13.85;100.00;98108.06;4974726;28;20039;-89
2022/10/17 00:13:54;;;;;;;15.50;11.27;;;;;;;13.99;100.00;98113.03;4974893;28;20521;-88
2022/10/17 00:16:29;;;;;;;19.40;12.27;;;;;;;14.06;100.00;98134.78;4975520;28;20059;-88
2022/10/17 00:18:56;;;;;;;15.77;10.50;;;;;;;14.05;100.00;98125.28;4975557;28;20033;-87
2022/10/17 00:21:23;;;;;;;16.90;10.82;;;;;;;14.04;100.00;98120.22;4975030;28;20129;-89
2022/10/17 00:23:51;;;;;;;15.15;9.88;;;;;;;14.05;100.00;98112.06;4959603;28;20042;-88
2022/10/17 00:26:19;;;;;;;15.20;10.43;;;;;;;14.11;100.00;98126.94;4973008;28;20118;-89
2022/10/17 00:28:46;;;;;;;13.65;10.27;;;;;;;14.08;100.00;98119.50;4974658;28;20031;-89
2022/10/17 00:31:12;;;;;;;16.27;10.77;;;;;;;14.07;100.00;98133.75;4975061;28;20039;-89
2022/10/17 00:33:38;;;;;;;16.98;11.05;;;;;;;14.12;100.00;98139.09;4958712;28;20484;-89
2022/10/17 00:36:07;;;;;;;14.70;10.43;;;;;;;14.21;100.00;98146.63;4976095;28;20038;-90
2022/10/17 00:38:33;;;;;;;20.20;10.95;;;;;;;14.16;100.00;98122.81;4970778;28;20083;-89
2022/10/17 00:40:58;;;;;;;17.15;9.43;;;;;;;14.21;100.00;98123.66;4976548;28;20031;-89
2022/10/17 00:43:25;;;;;;;13.30;10.43;;;;;;;14.19;100.00;98114.41;4975915;28;20034;-88
2022/10/17 00:45:51;;;;;;;13.15;9.32;;;;;;;14.27;100.00;98117.44;4959598;28;20503;-88
2022/10/17 00:48:17;;;;;;;13.63;9.55;;;;;;;14.19;100.00;98091.44;4960191;28;20102;-89
2022/10/17 00:50:45;;;;;;;10.25;8.70;;;;;;;14.19;100.00;98088.00;4977366;28;20034;-89
2022/10/17 00:53:12;;;;;;;13.05;9.27;;;;;;;14.12;100.00;98091.59;4973847;28;20054;-90
2022/10/17 00:55:44;;;;;;;11.45;7.53;;;;;;;14.31;100.00;98103.75;4960261;28;20457;-89
2022/10/17 00:58:10;;;;;;;10.95;6.95;;;;;;;14.21;100.00;98093.84;4976293;28;20449;-89
2022/10/17 01:00:36;;;;;;;11.73;5.88;;;;;;;14.29;100.00;98117.19;4977717;28;20065;-91
2022/10/17 01:03:03;;;;;;;9.57;6.55;;;;;;;14.41;100.00;98107.34;4978310;28;20034;-89
2022/10/17 01:05:28;;;;;;;6.93;5.80;;;;;;;14.40;100.00;98099.66;4962016;28;20022;-88
2022/10/17 01:07:54;;;;;;;11.77;6.03;;;;;;;14.31;100.00;98093.19;4961547;28;20043;-90
2022/10/17 01:10:20;;;;;;;7.07;5.25;;;;;;;14.16;100.00;98054.97;4976834;28;20086;-89
2022/10/17 01:12:55;;;;;;;9.88;5.72;;;;;;;14.39;100.00;98096.22;4960930;28;20046;-89
2022/10/17 01:15:36;;;;;;;8.35;6.97;;;;;;;14.51;100.00;98087.38;4977254;28;20030;-89
2022/10/17 01:18:41;;;;;;;7.70;4.47;;;;;;;14.47;100.00;98091.56;4963147;28;20493;-89
2022/10/17 01:21:34;;;;;;;6.38;4.90;;;;;;;14.51;100.00;98092.66;4925297;29;20060;-89
2022/10/17 01:24:11;;;;;;;10.82;5.00;;;;;;;14.60;100.00;98093.84;4909756;29;20035;-89
2022/10/17 01:27:25;;;;;;;6.38;4.32;;;;;;;14.51;100.00;98082.09;4925144;29;20047;-88
2022/10/17 01:30:10;;;;;;;12.52;4.55;;;;;;;14.52;100.00;98133.88;4913425;29;20048;-89
2022/10/17 01:32:53;;;;;;;7.93;4.63;;;;;;;14.61;100.00;98123.69;4943179;28;20054;-89
2022/10/17 01:35:31;;;;;;;14.18;4.80;;;;;;;14.50;100.00;98117.47;4946331;28;20501;-87
2022/10/17 01:38:06;;;;;;;12.60;4.70;;;;;;;14.62;100.00;98104.97;4962508;28;20114;-87
2022/10/17 01:40:57;;;;;;;7.30;4.50;;;;;;;14.65;100.00;98117.69;4944017;29;20039;-88
2022/10/17 01:43:48;;;;;;;10.57;4.70;;;;;;;14.60;100.00;98101.78;4950582;28;20089;-87
2022/10/17 01:46:25;;;;;;;10.35;4.63;;;;;;;14.74;100.00;98133.13;4962397;28;20031;-89
2022/10/17 01:48:52;;;;;;;8.38;4.93;;;;;;;14.38;100.00;98104.38;4944517;28;20039;-88
2022/10/17 01:51:24;;;;;;;9.18;4.50;;;;;;;14.71;100.00;98140.50;4971270;28;20054;-89
2022/10/17 01:54:15;;;;;;;7.97;4.63;;;;;;;14.83;100.00;98131.69;4978752;28;20034;-89
2022/10/17 01:56:55;;;;;;;7.72;4.18;;;;;;;14.80;100.00;98121.59;4978486;28;20030;-89
2022/10/17 01:59:30;;;;;;;14.50;4.85;;;;;;;14.71;100.00;98119.38;4960900;28;20039;-89
2022/10/17 02:01:58;;;;;;;8.32;4.25;;;;;;;14.60;100.00;98104.41;4962143;28;20030;-88
2022/10/17 02:04:25;;;;;;;5.80;3.70;;;;;;;14.67;100.00;98123.53;4962288;28;20023;-88
2022/10/17 02:06:50;;;;;;;12.52;3.78;;;;;;;14.71;100.00;98129.94;4961978;28;20031;-88
2022/10/17 02:09:24;;;;;;;8.40;3.58;;;;;;;14.60;100.00;98122.91;4961875;28;20042;-90
2022/10/17 02:12:08;;;;;;;9.77;3.30;;;;;;;14.79;100.00;98136.66;4961875;28;20417;-89
2022/10/17 02:14:39;;;;;;;5.88;3.22;;;;;;;14.76;100.00;98139.00;4977096;28;20166;-89
2022/10/17 02:17:24;;;;;;;7.80;3.17;;;;;;;14.76;100.00;98141.63;4977412;28;20030;-89
2022/10/17 02:20:09;;;;;;;;;;;;;;;14.81;100.00;98134.56;4979039;28;20061;-87
2022/10/17 02:22:59;;;;;;;8.93;4.38;;;;;;;14.76;100.00;98145.06;4960248;28;20495;-90
2022/10/17 02:25:52;;;;;;;9.07;4.30;;;;;;;14.81;100.00;98153.03;4978160;28;20031;-91
2022/10/17 02:28:30;;;;;;;11.50;3.67;;;;;;;14.62;100.00;98125.28;4970238;28;20038;-89
2022/10/17 02:31:14;;;;;;;10.13;3.63;;;;;;;14.75;100.00;98150.59;4960588;28;20039;-89
2022/10/17 02:33:53;;;;;;;14.60;4.03;;;;;;;14.78;100.00;98158.03;4958826;28;20110;-87
2022/10/17 02:36:23;;;;;;;11.82;3.58;;;;;;;14.61;100.00;98145.63;4950295;28;20034;-89
2022/10/17 02:38:52;;;;;;;11.73;3.90;;;;;;;14.64;100.00;98139.84;4956370;28;20039;-86
2022/10/17 02:41:21;;;;;;;8.75;4.18;;;;;;;14.76;100.00;98162.78;4961544;28;20142;-88
2022/10/17 02:43:49;;;;;;;6.80;3.88;;;;;;;14.59;100.00;98153.00;4953701;28;20042;-88
2022/10/17 02:46:20;;;;;;;14.15;4.45;;;;;;;14.54;100.00;98155.53;4971999;28;20054;-88
2022/10/17 02:49:06;;;;;;;11.52;4.28;;;;;;;14.74;100.00;98170.13;4977908;28;20132;-89
2022/10/17 02:51:55;;;;;;;13.98;4.05;;;;;;;14.54;100.00;98160.81;4979009;28;20035;-88
2022/10/17 02:54:33;;;;;;;8.75;3.63;;;;;;;14.60;100.00;98149.31;4965723;28;20041;-88
2022/10/17 02:57:06;;;;;;;4.90;2.40;;;;;;;14.43;100.00;98165.97;4965630;28;20039;-89
2022/10/17 02:59:34;;;;;;;2.42;1.83;;;;;;;14.35;100.00;98173.50;4980220;28;20046;-89
2022/10/17 03:02:05;;;;;;;3.40;1.83;;;;;;;14.39;100.00;98153.50;4962563;28;20031;-88
2022/10/17 03:04:30;;;;;;;5.65;2.22;;;;;;;14.36;100.00;98181.19;4978548;28;20038;-88
2022/10/17 03:06:56;;;;;;;6.97;2.08;;;;;;;14.27;100.00;98174.69;4963334;28;20035;-88
2022/10/17 03:09:22;;;;;;;5.40;2.03;;;;;;;14.21;100.00;98184.34;4963061;28;20034;-88
2022/10/17 03:11:47;;;;;;;3.65;2.15;;;;;;;14.12;100.00;98191.88;4963541;28;20038;-89
2022/10/17 03:14:13;;;;;;;5.13;2.45;;;;;;;14.20;100.00;98192.53;4956877;28;20119;-89
2022/10/17 03:16:38;;;;;;;5.82;2.38;;;;;;;14.05;100.00;98172.75;4945921;28;20082;-88
2022/10/17 03:19:04;;;;;;;8.00;3.00;;;;;;;14.07;100.00;98197.06;4952421;28;20035;-87
2022/10/17 03:21:29;;;;;;;8.45;3.05;;;;;;;14.12;100.00;98181.31;4976294;28;20055;-89
2022/10/17 03:23:55;;;;;;;9.27;3.15;;;;;;;14.36;100.00;98194.38;4971372;28;20026;-88
2022/10/17 03:26:21;;;;;;;8.77;3.00;;;;;;;14.27;100.00;98177.34;4962209;28;20030;-88
2022/10/17 03:28:46;;;;;;;11.38;4.00;;;;;;;14.13;100.00;98156.53;4961393;28;20038;-88
2022/10/17 03:31:14;;;;;;;7.65;3.10;;;;;;;14.11;100.00;98148.06;4962726;28;20035;-89
2022/10/17 03:33:41;;;;;;;6.47;3.42;;;;;;;14.26;100.00;98173.91;4961590;28;20042;-87
2022/10/17 03:36:10;;;;;;;11.38;3.55;;;;;;;14.14;100.00;98163.41;4977294;28;20478;-89
2022/10/17 03:38:36;;;;;;;8.48;3.03;;;;;;;14.03;100.00;98169.56;4958272;28;20086;-88
2022/10/17 03:41:03;;;;;;;9.23;3.28;;;;;;;14.10;100.00;98193.16;4960825;28;20034;-89
2022/10/17 03:43:30;;;;;;;10.35;3.60;;;;;;;13.98;100.00;98187.97;4959814;28;20023;-88
2022/10/17 03:45:57;;;;;;;11.02;3.63;;;;;;;13.80;100.00;98171.28;4945699;28;20039;-91
2022/10/17 03:48:24;;;;;;;13.15;3.50;;;;;;;13.84;100.00;98190.88;4951404;28;20114;-90
2022/10/17 03:50:49;;;;;;;6.60;3.65;;;;;;;13.79;100.00;98182.06;4960193;28;20481;-90
2022/10/17 03:53:15;;;;;;;8.75;3.40;;;;;;;13.74;100.00;98180.13;4943121;29;20042;-88
2022/10/17 03:55:41;;;;;;;12.77;3.65;;;;;;;13.63;100.00;98173.88;4944215;29;20062;-89
2022/10/17 03:58:07;;;;;;;11.77;3.70;;;;;;;13.68;100.00;98199.53;4943044;29;20111;-88
2022/10/17 04:00:35;;;;;;;12.93;4.20;;;;;;;13.51;100.00;98176.56;4958182;28;20067;-89
2022/10/17 04:03:00;;;;;;;18.70;4.32;;;;;;;13.52;100.00;98180.00;4958031;28;20121;-88
2022/10/17 04:05:26;;;;;;;15.95;3.92;;;;;;;13.71;100.00;98202.53;4941998;28;20051;-87
2022/10/17 04:07:52;;;;;;;14.88;4.15;;;;;;;13.57;100.00;98183.56;4959406;28;20034;-88
2022/10/17 04:10:17;;;;;;;7.60;3.50;;;;;;;13.70;100.00;98215.94;4967477;28;20052;-88
2022/10/17 04:12:43;;;;;;;13.93;4.13;;;;;;;13.67;100.00;98206.66;4956408;28;20405;-89
2022/10/17 04:15:09;;;;;;;16.33;3.95;;;;;;;13.56;100.00;98189.84;4963997;28;20457;-88
2022/10/17 04:17:35;;;;;;;16.10;3.75;;;;;;;13.60;100.00;98207.84;4973394;28;20034;-89
2022/10/17 04:20:01;;;;;;;12.35;4.00;;;;;;;13.79;100.00;98217.16;4965013;28;20035;-89
2022/10/17 04:22:26;;;;;;;12.48;3.72;;;;;;;13.71;100.00;98213.06;4943500;28;20118;-88
2022/10/17 04:24:52;;;;;;;14.00;3.55;;;;;;;13.68;100.00;98223.28;4952464;28;20039;-87
2022/10/17 04:27:18;;;;;;;7.10;3.45;;;;;;;13.47;100.00;98206.28;4948726;29;20037;-88
2022/10/17 04:29:43;;;;;;;9.90;3.58;;;;;;;13.48;100.00;98208.66;4975067;28;20062;-90
2022/10/17 04:32:09;;;;;;;17.02;4.10;;;;;;;13.51;100.00;98224.00;4954586;28;20038;-89
2022/10/17 04:34:35;;;;;;;11.60;4.10;;;;;;;13.29;100.00;98205.38;4962380;28;20031;-87
2022/10/17 04:37:01;;;;;;;9.63;2.63;;;;;;;13.28;100.00;98209.84;4948573;28;20039;-89
2022/10/17 04:39:28;;;;;;;13.95;3.15;;;;;;;13.10;100.00;98213.44;4960453;28;20031;-87
2022/10/17 04:41:55;;;;;;;17.15;3.60;;;;;;;13.20;100.00;98230.47;4956646;28;20071;-88
2022/10/17 04:44:21;;;;;;;15.82;3.22;;;;;;;13.18;100.00;98238.63;4958287;28;20046;-88
2022/10/17 04:46:47;;;;;;;13.07;2.70;;;;;;;13.07;100.00;98224.44;4942139;29;20409;-87
2022/10/17 04:49:12;;;;;;;16.50;3.20;;;;;;;12.95;100.00;98221.78;4973450;28;20043;-88
2022/10/17 04:51:38;;;;;;;11.40;3.58;;;;;;;13.03;100.00;98225.13;4959368;28;20034;-88
2022/10/17 04:54:04;;;;;;;19.45;3.45;;;;;;;12.91;100.00;98217.22;4959813;28;20037;-88
2022/10/17 04:56:30;;;;;;;12.52;2.65;;;;;;;12.89;100.00;98241.16;4965250;28;20031;-88
2022/10/17 04:58:58;;;;;;;12.82;3.10;;;;;;;12.93;100.00;98260.72;4964910;28;20062;-87
2022/10/17 05:01:25;;;;;;;16.42;3.38;;;;;;;12.84;100.00;98256.84;4978088;28;20031;-88
2022/10/17 05:03:51;;;;;;;14.82;3.00;;;;;;;12.89;100.00;98288.56;4951937;28;20035;-89
2022/10/17 05:06:19;;;;;;;9.05;2.65;;;;;;;12.90;100.00;98263.81;4965569;28;20038;-89
2022/10/17 05:08:46;;;;;;;9.57;2.83;;;;;;;12.81;100.00;98249.41;4955499;28;20457;-87
2022/10/17 05:11:27;;;;;;;10.20;2.47;;;;;;;13.02;100.00;98278.84;4946323;29;20035;-89
2022/10/17 05:13:53;;;;;;;11.30;2.65;;;;;;;12.89;100.00;98264.84;4967815;28;20038;-89
2022/10/17 05:16:19;;;;;;;14.43;2.85;;;;;;;12.95;100.00;98289.47;4971745;28;20390;-88
2022/10/17 05:18:53;;;;;;;12.02;3.50;;;;;;;12.93;100.00;98291.53;4970037;28;20062;-88
2022/10/17 05:21:22;;;;;;;14.65;3.45;;;;;;;12.96;100.00;98293.72;4953746;28;20043;-88
2022/10/17 05:23:48;;;;;;;11.13;2.30;;;;;;;12.90;100.00;98290.16;4952459;28;20039;-87
2022/10/17 05:26:14;;;;;;;11.43;3.05;;;;;;;12.80;100.00;98282.81;4968876;28;20035;-87
2022/10/17 05:28:41;;;;;;;16.83;3.65;;;;;;;12.82;100.00;98280.75;4952076;28;20508;-87
2022/10/17 05:31:08;;;;;;;11.43;2.78;;;;;;;12.76;100.00;98288.75;4965932;28;20067;-89
2022/10/17 05:33:35;;;;;;;10.90;2.60;;;;;;;12.74;100.00;98277.66;4965112;28;20047;-89
2022/10/17 05:36:00;;;;;;;8.80;3.25;;;;;;;12.75;100.00;98295.06;4957596;28;20031;-89
2022/10/17 05:38:41;;;;;;;13.18;3.35;;;;;;;12.58;100.00;98269.41;4965677;28;20122;-88
2022/10/17 05:41:09;;;;;;;10.18;2.78;;;;;;;12.71;100.00;98290.25;4962932;28;20039;-87
2022/10/17 05:43:34;;;;;;;13.77;2.85;;;;;;;12.68;100.00;98305.72;4956164;28;20489;-87
2022/10/17 05:46:05;;;;;;;16.80;3.38;;;;;;;12.71;100.00;98324.47;4948588;28;20027;-88
2022/10/17 05:48:33;;;;;;;15.00;2.53;;;;;;;12.70;100.00;98316.81;4974084;28;20026;-88
2022/10/17 05:51:04;;;;;;;12.73;2.88;;;;;;;12.64;100.00;98321.16;4970899;28;20276;-87
2022/10/17 05:53:31;;;;;;;12.30;3.00;;;;;;;12.64;100.00;98336.97;4949004;28;20035;-88
2022/10/17 05:56:01;;;;;;;15.68;2.80;;;;;;;12.77;100.00;98356.19;4923968;29;20079;-88
2022/10/17 05:58:27;;;;;;;15.45;2.70;;;;;;;12.61;100.00;98347.13;4940049;29;20039;-87
2022/10/17 06:00:58;;;;;;;15.40;2.50;;;;;;;12.73;100.00;98362.94;4965258;28;20074;-88
2022/10/17 06:03:24;;;;;;;12.13;3.15;;;;;;;12.65;100.00;98351.72;4960490;28;20035;-87
2022/10/17 06:05:51;;;;;;;15.57;2.83;;;;;;;12.57;100.00;98344.94;4971778;28;20023;-88
2022/10/17 06:08:17;;;;;;;15.77;3.30;;;;;;;12.53;100.00;98351.69;4946448;28;20089;-88
2022/10/17 06:10:46;;;;;;;21.15;3.88;;;;;;;12.59;100.00;98357.06;4948777;28;20117;-89
2022/10/17 06:13:12;;;;;;;11.52;3.20;;;;;;;12.50;100.00;98356.59;4964439;28;20071;-88
2022/10/17 06:15:37;;;;;;;12.52;2.90;;;;;;;12.39;100.00;98340.56;4971503;28;20509;-87
2022/10/17 06:18:03;;;;;;;18.20;3.92;;;;;;;12.45;100.00;98365.16;4948601;28;20066;-88
2022/10/17 06:20:28;;;;;;;15.43;3.67;;;;;;;12.40;100.00;98367.66;4968102;28;20062;-88
2022/10/17 06:22:54;;;;;;;13.32;2.92;;;;;;;12.26;100.00;98362.56;4967607;28;20043;-89
2022/10/17 06:25:19;;;;;;;15.88;2.80;;;;;;;12.35;100.00;98373.56;4952402;28;20031;-89
2022/10/17 06:27:45;;;;;;;18.90;2.80;;;;;;;12.27;100.00;98363.38;4964047;28;20182;-89
2022/10/17 06:30:10;;;;;;;16.65;3.30;;;;;;;12.36;100.00;98377.03;4965590;28;20110;-88
2022/10/17 06:32:36;;;;;;;19.92;3.17;;;;;;;12.24;100.00;98401.44;4961656;28;20045;-88
2022/10/17 06:35:02;;;;;;;10.70;2.42;;;;;;;12.29;100.00;98398.16;4977649;28;20050;-89
2022/10/17 06:37:35;;;;;;;18.00;3.38;;;;;;;12.36;100.00;98404.13;4960551;28;20034;-86
2022/10/17 06:40:01;;;;;;;23.05;3.22;;;;;;;12.20;100.00;98405.56;4968693;28;20030;-88
2022/10/17 06:42:28;;;;;;;11.18;2.50;;;;;;;12.38;100.00;98417.91;4972641;28;20037;-85
2022/10/17 06:44:53;;;;;;;13.95;2.38;;;;;;;12.29;100.00;98413.94;4946224;28;20042;-88
2022/10/17 06:47:19;;;;;;;18.48;3.15;;;;;;;12.30;100.00;98415.56;4969900;28;20023;-86
2022/10/17 06:49:45;;;;;;;12.27;3.40;;;;;;;12.29;100.00;98435.00;4940036;28;20031;-86
2022/10/17 06:52:11;;;;;;;16.45;3.83;;;;;;;12.28;100.00;98433.41;4941473;29;20061;-86
2022/10/17 06:54:37;;;;;;;16.75;2.78;;;;;;;12.22;100.00;98434.28;4957657;28;20063;-88
2022/10/17 06:57:03;;;;;;;12.13;2.95;;;;;;;12.30;100.00;98449.75;4950522;28;20059;-87
2022/10/17 06:59:29;;;;;;;14.30;3.10;;;;;;;12.16;100.00;98445.66;4976009;28;20041;-87
2022/10/17 07:01:54;;;;;;;8.73;2.80;;;;;;;12.34;100.00;98448.28;4966257;28;20032;-88
2022/10/17 07:04:20;;;;;;;17.15;3.20;;;;;;;12.43;100.00;98462.78;4965887;28;20042;-91
2022/10/17 07:06:45;;;;;;;11.38;3.83;;;;;;;12.35;100.00;98449.91;4952540;28;20027;-87
2022/10/17 07:09:11;;;;;;;14.60;3.10;;;;;;;12.39;100.00;98458.97;4970299;28;20027;-89
2022/10/17 07:11:36;;;;;;;24.55;3.03;;;;;;;12.11;100.00;98410.31;4971223;28;20031;-90
2022/10/17 07:14:02;;;;;;;16.83;2.88;;;;;;;12.42;100.00;98476.16;4967544;28;20650;-91
2022/10/17 07:16:28;;;;;;;18.50;3.33;;;;;;;12.54;100.00;98468.31;4957903;28;20034;-89
2022/10/17 07:18:54;;;;;;;20.77;3.20;;;;;;;12.55;100.00;98475.19;4960987;28;20029;-86
2022/10/17 07:21:21;;;;;;;17.75;2.85;;;;;;;12.65;100.00;98483.38;4955141;28;20404;-88
2022/10/17 07:24:44;;;;;;;25.75;3.80;;;;;;;12.81;100.00;98494.31;4976247;28;20035;-89
2022/10/17 07:27:09;;;;;;;19.77;3.42;;;;;;;12.41;100.00;98459.56;4975806;28;20140;-88
2022/10/17 07:29:35;;;;;;;23.33;4.68;;;;;;;12.92;100.00;98519.91;4959128;28;20045;-89
2022/10/17 07:32:07;;;;;;;15.35;2.70;;;;;;;12.68;100.00;98498.72;4959471;28;20035;-90
2022/10/17 07:34:34;;;;;;;21.00;2.85;;;;;;;12.50;100.00;98488.22;4960005;28;20090;-86
2022/10/17 07:40:08;;;;;;;11.40;2.42;;;;;;;12.69;100.00;98508.22;4958202;28;20043;-89
2022/10/17 07:42:42;;;;;;;16.70;2.70;;;;;;;12.73;100.00;98536.75;4956516;28;20046;-88
2022/10/17 07:45:22;;;;;;;14.93;2.65;;;;;;;12.82;100.00;98559.13;4957776;28;20046;-90
2022/10/17 07:48:27;;;;;;;11.20;2.97;;;;;;;12.98;100.00;98560.34;4957134;28;20437;-91
2022/10/17 07:51:03;;;;;;;14.43;3.60;;;;;;;12.41;100.00;98501.69;4920338;29;20075;-90
2022/10/17 07:53:39;;;;;;;19.38;4.13;;;;;;;12.20;100.00;98504.75;4942151;28;20063;-89
2022/10/17 07:56:28;;;;;;;16.17;3.97;;;;;;;12.39;100.00;98548.47;4956219;28;20549;-91
2022/10/17 07:59:53;;;;;;;17.75;3.40;;;;;;;12.55;100.00;98588.38;4940924;29;20136;-90
2022/10/17 08:02:24;;;;;;;17.73;3.22;;;;;;;12.36;100.00;98588.34;4956568;28;20049;-89
2022/10/17 08:04:53;;;;;;;20.63;2.78;;;;;;;12.07;100.00;98538.03;4955333;28;20053;-89
2022/10/17 08:07:22;;;;;;;20.35;4.07;;;;;;;12.03;100.00;98539.50;4961878;28;20038;-89
2022/10/17 08:09:50;;;;;;;19.35;2.97;;;;;;;12.43;100.00;98601.47;4973562;28;20069;-89
2022/10/17 08:12:19;;;;;;;23.55;3.70;;;;;;;12.12;100.00;98568.97;4958493;28;20038;-90
2022/10/17 08:18:44;;;;;;;13.13;2.72;;;;;;;11.87;100.00;98553.94;4976045;28;20180;-89
2022/10/17 08:21:12;;;;;;;14.45;4.03;;;;;;;11.85;100.00;98556.81;4974197;28;20518;-89
2022/10/17 08:23:50;;;;;;;20.50;3.03;;;;;;;12.31;100.00;98621.63;4958315;28;20050;-89
2022/10/17 08:30:25;;;;;;;17.90;3.55;;;;;;;11.80;100.00;98567.16;4975256;28;20066;-88
2022/10/17 08:37:03;;;;;;;22.15;2.88;;;;;;;11.94;100.00;98574.94;4975001;28;20054;-90
2022/10/17 08:39:29;;;;;;;14.73;3.22;;;;;;;12.33;100.00;98609.84;4959413;28;20046;-91
2022/10/17 08:42:31;;;;;;;20.40;3.17;;;;;;;12.25;100.00;98583.81;4958086;28;20031;-87
2022/10/17 08:45:23;;;;;;;28.00;3.93;;;;;;;12.80;100.00;98654.16;4938985;29;20129;-88
2022/10/17 08:48:12;;;;;;;27.33;3.45;;;;;;;12.51;100.00;98629.34;4939055;29;20580;-87
2022/10/17 08:50:40;;;;;;;19.42;2.97;;;;;;;12.86;100.00;98655.91;4970401;28;20039;-89
2022/10/17 08:53:18;;;;;;;19.75;3.60;;;;;;;12.69;100.00;98626.72;4938480;29;20085;-88
2022/10/17 08:55:48;;;;;;;19.77;3.50;;;;;;;13.01;100.00;98657.38;4938067;28;20066;-88
2022/10/17 08:58:21;;;;;;;17.23;3.38;;;;;;;12.49;100.00;98582.19;4938673;29;20035;-91
2022/10/17 09:00:52;;;;;;;;;;;;;;;13.11;100.00;98664.78;4940258;28;20066;-89
2022/10/17 09:03:55;;;;;;;17.40;3.00;;;;;;;13.19;100.00;98669.78;4956042;28;19970;-88
2022/10/17 09:06:31;;;;;;;20.52;3.63;;;;;;;13.15;100.00;98652.75;4972963;28;20114;-89
2022/10/17 09:09:43;;;;;;;23.25;3.85;;;;;;;13.09;100.00;98651.03;4957578;28;20038;-89
2022/10/17 09:12:13;;;;;;;28.40;3.28;;;;;;;13.19;100.00;98659.22;4965903;28;20046;-89
2022/10/17 09:15:01;;;;;;;22.15;3.00;;;;;;;13.34;100.00;98695.75;4959820;28;20093;-88
2022/10/17 09:17:50;;;;;;;23.73;3.33;;;;;;;13.32;100.00;98684.63;4961633;28;20503;-86
2022/10/17 09:20:23;;;;;;;19.60;2.90;;;;;;;13.51;100.00;98706.50;4971080;28;20043;-87
2022/10/17 09:23:05;;;;;;;14.50;2.92;;;;;;;13.48;100.00;98711.44;4972749;28;20046;-85
2022/10/17 09:25:41;;;;;;;14.45;2.72;;;;;;;13.62;100.00;98694.41;4963813;28;20498;-89
2022/10/17 09:28:19;;;;;;;21.10;4.00;;;;;;;13.70;100.00;98680.09;4952777;28;20042;-88
2022/10/17 09:34:09;;;;;;;12.45;2.45;;;;;;;13.43;100.00;98660.16;4959737;28;20117;-88
2022/10/17 09:36:38;;;;;;;20.85;3.30;;;;;;;13.78;100.00;98693.00;4954453;28;20039;-86
2022/10/17 09:39:17;;;;;;;10.77;2.97;;;;;;;13.24;100.00;98662.00;4955258;28;20133;-90
2022/10/17 09:41:48;;;;;;;13.93;2.88;;;;;;;13.44;100.00;98660.97;4957672;28;20042;-87
2022/10/17 09:44:21;;;;;;;16.52;3.42;;;;;;;13.42;100.00;98670.91;4973847;28;20027;-89
2022/10/17 09:47:15;;;;;;;19.70;3.15;;;;;;;13.74;100.00;98728.75;4957732;28;20238;-88
2022/10/17 09:49:43;;;;;;;15.00;3.53;;;;;;;13.79;100.00;98715.72;4957142;28;20047;-88
2022/10/17 09:52:11;;;;;;;13.70;3.10;;;;;;;13.81;100.00;98721.56;4957634;28;20039;-89
2022/10/17 09:55:15;;;;;;;11.65;2.53;;;;;;;13.83;100.00;98722.13;4957281;28;20096;-87
2022/10/17 09:57:53;;;;;;;11.50;2.35;;;;;;;13.43;100.00;98693.63;4973330;28;20212;-85
2022/10/17 10:00:28;;;;;;;13.63;2.53;;;;;;;13.54;100.00;98703.44;4972715;28;20031;-87
2022/10/17 10:03:15;;;;;;;15.18;2.78;;;;;;;13.91;100.00;98749.22;4972896;28;20034;-88
2022/10/17 10:05:42;;;;;;;15.80;2.78;;;;;;;13.59;100.00;98730.97;4958423;28;20042;-89
2022/10/17 10:08:16;;;;;;;12.98;2.33;;;;;;;13.97;100.00;98764.19;4973898;28;20030;-89
2022/10/17 10:10:43;;;;;;;14.98;2.80;;;;;;;14.03;100.00;98762.47;4974215;28;20100;-91
2022/10/17 10:13:11;;;;;;;19.65;3.28;;;;;;;13.97;100.00;98758.91;4975318;28;20489;-89
2022/10/17 10:15:40;;;;;;;18.55;3.22;;;;;;;14.12;100.00;98771.69;4975930;28;20038;-89
2022/10/17 10:18:34;;;;;;;13.05;2.70;;;;;;;13.82;100.00;98709.97;4957785;28;20030;-90
2022/10/17 10:21:06;;;;;;;8.93;2.28;;;;;;;13.99;100.00;98762.91;4972724;28;20050;-87
2022/10/17 10:23:33;;;;;;;9.80;2.67;;;;;;;14.08;100.00;98766.03;4960146;28;20069;-86
2022/10/17 10:26:33;;;;;;;14.23;2.65;;;;;;;14.04;100.00;98746.41;4959520;28;20428;-88
2022/10/17 10:29:04;;;;;;;11.95;2.72;;;;;;;14.12;100.00;98756.66;4968884;28;20046;-90
2022/10/17 10:31:35;;;;;;;15.88;2.70;;;;;;;13.87;100.00;98729.59;4960586;28;20044;-88
2022/10/17 10:34:21;;;;;;;11.07;2.17;;;;;;;14.32;100.00;98752.91;4975740;28;20030;-88
2022/10/17 10:37:09;;;;;;;17.20;2.75;;;;;;;14.27;100.00;98779.19;4976177;28;20026;-87
2022/10/17 10:39:44;;;;;;;10.80;2.33;;;;;;;14.39;100.00;98777.41;4964102;28;20042;-87
2022/10/17 10:42:27;;;;;;;16.35;2.80;;;;;;;14.12;100.00;98740.81;4977358;28;20030;-88
2022/10/17 10:45:21;;;;;;;7.80;2.13;;;;;;;14.41;100.00;98796.47;4993444;28;20042;-88
2022/10/17 10:47:52;;;;;;;8.65;3.30;;;;;;;14.51;100.00;98805.66;4976357;28;20397;-88
2022/10/17 10:50:29;;;;;;;14.68;2.38;;;;;;;14.00;100.00;98769.00;4960687;28;20497;-89
2022/10/17 10:53:05;;;;;;;13.90;2.60;;;;;;;14.56;100.00;98811.09;4960532;28;20045;-84
2022/10/17 10:55:35;;;;;;;10.52;2.33;;;;;;;14.55;100.00;98797.06;4958324;28;20038;-86
2022/10/17 10:58:23;;;;;;;17.00;2.88;;;;;;;14.21;100.00;98758.97;4958337;28;20034;-85
2022/10/17 11:00:50;;;;;;;15.30;3.47;;;;;;;14.25;100.00;98773.34;4972195;28;20026;-85
2022/10/17 11:03:23;;;;;;;18.35;3.33;;;;;;;14.32;100.00;98787.25;4992791;28;20080;-86
2022/10/17 11:05:55;;;;;;;14.15;3.20;;;;;;;14.78;100.00;98821.16;4974527;28;20062;-86
2022/10/17 11:08:39;;;;;;;15.15;2.95;;;;;;;14.84;100.00;98825.53;4959247;28;20341;-85
2022/10/17 11:11:23;;;;;;;21.90;3.30;;;;;;;14.77;100.00;98830.13;4974962;28;20030;-85
2022/10/17 11:13:52;;;;;;;;;;;;;;;14.95;100.00;98835.31;4959466;28;20058;-85
2022/10/17 11:16:46;;;;;;;10.85;2.35;;;;;;;14.86;100.00;98841.94;4975783;28;19921;-85
2022/10/17 11:19:36;;;;;;;16.55;2.42;;;;;;;15.02;100.00;98847.59;4976808;28;20034;-85
2022/10/17 11:22:12;;;;;;;10.68;3.70;;;;;;;14.98;100.00;98834.84;4959216;28;20511;-85
2022/10/17 11:25:02;;;;;;;10.15;2.25;;;;;;;14.84;100.00;98786.69;4975227;28;20113;-85
2022/10/17 11:27:32;;;;;;;13.15;3.13;;;;;;;14.82;100.00;98795.88;4959146;28;20049;-86
2022/10/17 11:29:58;;;;;;;11.80;2.38;;;;;;;14.69;100.00;98802.16;4974766;28;20037;-86
2022/10/17 11:32:38;;;;;;;15.55;3.00;;;;;;;14.91;100.00;98826.22;4958769;28;20112;-85
2022/10/17 11:35:21;;;;;;;13.30;2.45;;;;;;;14.84;100.00;98847.47;4992078;28;20038;-86
2022/10/17 11:38:16;;;;;;;13.57;2.92;;;;;;;14.73;100.00;98828.94;4958003;28;20030;-85
2022/10/17 11:40:48;;;;;;;13.45;2.67;;;;;;;15.27;100.00;98879.13;4974848;28;20078;-85
2022/10/17 11:43:56;;;;;;;14.63;2.67;;;;;;;15.49;100.00;98907.66;4974767;28;20088;-86
2022/10/17 11:46:24;;;;;;;13.65;2.70;;;;;;;15.42;100.00;98905.09;4973594;28;20042;-85
2022/10/17 11:49:00;;;;;;;19.20;2.80;;;;;;;15.41;100.00;98906.16;4957865;28;20505;-85
2022/10/17 11:51:25;;;;;;;9.05;2.65;;;;;;;15.34;100.00;98885.09;4991486;28;20040;-86
2022/10/17 11:53:54;;;;;;;11.05;2.20;;;;;;;15.35;100.00;98899.13;4975013;28;20392;-85
2022/10/17 11:56:29;;;;;;;14.93;2.95;;;;;;;15.23;100.00;98902.56;4991910;28;20074;-85
2022/10/17 11:59:26;;;;;;;14.18;3.08;;;;;;;15.15;100.00;98916.13;4974178;28;20172;-86
2022/10/17 12:02:00;;;;;;;12.73;3.22;;;;;;;14.77;100.00;98893.53;4990927;28;20109;-86
2022/10/17 12:04:42;;;;;;;17.65;3.55;;;;;;;14.96;100.00;98908.28;4973527;28;20484;-86